Lennoxville, Canada
Current Conditions -  °F | °C
As of 3:00 AM on Monday 22 Dec 2014 (Local Time) from CYSC Reporting Station
Overcast Overcast  
Wind Chill: 19°   Ceiling: 2400
Heat Index: 19°   Visibility: 7mi
Dew Point: 18°   Wind: 0mph
Humidity: 93%   Direction: NA
Pressure: 30.37"   Gusts: NA
Location:  45.37°N, 71.86°W
Report Text: CYSC 220800Z AUTO 00000KT 7SM OVC024 M07/M08 A3037 RMK SLP301
Loading
Personal Weather Stations






























Interactive Weather Map New forecast layout! Learn more

10-Day Weather Forecast

Advertisements
Track Severe Weather on mobile